Time;durP1;ratioP1;P1;durP2;ratioP2;P2;SDS_P1;SDS_P2;PMS_P1;PMS_P2;Temp;Humidity;BMP_temperature;BMP_pressure;BME280_temperature;BME280_humidity;BME280_pressure;Samples;Min_cycle;Max_cycle;Signal;HPM_P1;HPM_P2
2024/04/13 00:01:27;;;;;;;4.13;1.20;;;;;;;12.97;100.00;102730.31;5562665;25;20008;-74
2024/04/13 00:03:52;;;;;;;4.03;1.40;;;;;;;12.91;100.00;102731.59;5562228;25;20004;-78
2024/04/13 00:06:18;;;;;;;3.10;1.20;;;;;;;12.89;100.00;102730.88;5562485;25;20012;-75
2024/04/13 00:08:43;;;;;;;5.50;1.38;;;;;;;12.89;100.00;102722.84;5562016;25;19997;-75
2024/04/13 00:11:09;;;;;;;3.20;1.20;;;;;;;12.87;100.00;102728.31;5562708;25;20004;-75
2024/04/13 00:13:38;;;;;;;3.88;1.33;;;;;;;12.84;100.00;102720.50;5562415;25;20000;-74
2024/04/13 00:16:04;;;;;;;5.30;1.27;;;;;;;12.83;100.00;102721.47;5562456;25;20007;-75
2024/04/13 00:18:33;;;;;;;4.65;1.50;;;;;;;12.85;100.00;102716.00;5562465;25;20440;-75
2024/04/13 00:20:59;;;;;;;4.03;1.65;;;;;;;12.85;100.00;102716.00;5562583;25;19997;-75
2024/04/13 00:23:25;;;;;;;3.42;1.27;;;;;;;12.86;100.00;102707.88;5562077;25;19993;-75
2024/04/13 00:25:51;;;;;;;4.25;1.73;;;;;;;12.87;100.00;102708.78;5562486;25;19997;-76
2024/04/13 00:28:17;;;;;;;4.82;1.10;;;;;;;12.85;100.00;102708.88;5562168;25;19996;-75
2024/04/13 00:30:43;;;;;;;3.28;1.35;;;;;;;12.81;100.00;102702.03;5562424;25;20389;-76
2024/04/13 00:33:09;;;;;;;5.32;1.30;;;;;;;12.77;100.00;102703.22;5562196;25;19999;-75
2024/04/13 00:35:35;;;;;;;7.05;1.55;;;;;;;12.70;100.00;102705.47;5562273;25;19997;-75
2024/04/13 00:38:02;;;;;;;6.95;1.40;;;;;;;12.66;100.00;102701.28;5529146;25;20033;-76
2024/04/13 00:40:28;;;;;;;4.97;1.63;;;;;;;12.62;100.00;102698.94;5564920;25;20474;-75
2024/04/13 00:43:04;;;;;;;3.53;0.88;;;;;;;12.61;100.00;102697.22;5532856;25;19989;-74
2024/04/13 00:45:42;;;;;;;4.55;1.50;;;;;;;12.58;100.00;102686.75;5566132;25;20085;-74
2024/04/13 00:48:09;;;;;;;3.70;1.85;;;;;;;12.58;100.00;102692.94;5566019;25;19993;-76
2024/04/13 00:50:35;;;;;;;6.30;1.10;;;;;;;12.54;100.00;102686.13;5566086;25;20004;-75
2024/04/13 00:53:00;;;;;;;5.65;1.60;;;;;;;12.53;100.00;102684.41;5533325;25;20005;-75
2024/04/13 00:55:26;;;;;;;9.40;1.40;;;;;;;12.57;100.00;102677.91;5532784;25;20314;-77
2024/04/13 00:57:51;;;;;;;5.03;1.40;;;;;;;12.58;100.00;102666.25;5565686;25;20008;-76
2024/04/13 01:00:19;;;;;;;3.88;1.25;;;;;;;12.62;100.00;102667.75;5565600;25;19996;-77
2024/04/13 01:02:46;;;;;;;5.57;1.40;;;;;;;12.61;100.00;102667.84;5566247;25;19997;-78
2024/04/13 01:05:14;;;;;;;3.85;1.60;;;;;;;12.62;100.00;102664.25;5565846;25;20020;-77
2024/04/13 01:07:41;;;;;;;4.53;1.50;;;;;;;12.61;100.00;102665.19;5565666;25;20004;-77
2024/04/13 01:10:11;;;;;;;6.10;1.35;;;;;;;12.62;100.00;102651.72;5565473;25;19997;-77
2024/04/13 01:12:37;;;;;;;3.33;1.33;;;;;;;12.58;100.00;102662.72;5566529;25;20007;-77
2024/04/13 01:15:03;;;;;;;6.30;1.92;;;;;;;12.56;100.00;102662.84;5565252;25;19997;-77
2024/04/13 01:17:28;;;;;;;5.20;1.65;;;;;;;12.57;100.00;102674.38;5565034;25;19993;-77
2024/04/13 01:19:53;;;;;;;4.85;1.42;;;;;;;12.55;100.00;102663.78;5565314;25;19993;-77
2024/04/13 01:22:21;;;;;;;5.05;1.40;;;;;;;12.48;100.00;102665.19;5565457;25;19996;-76
2024/04/13 01:24:47;;;;;;;7.40;1.52;;;;;;;12.44;100.00;102658.38;5565428;25;19992;-77
2024/04/13 01:27:13;;;;;;;2.70;1.73;;;;;;;12.46;100.00;102646.59;5565275;25;20122;-75
2024/04/13 01:29:38;;;;;;;2.47;1.23;;;;;;;12.43;100.00;102646.81;5565450;25;19997;-76
2024/04/13 01:32:04;;;;;;;9.07;1.38;;;;;;;12.42;100.00;102644.25;5565231;25;19997;-74
2024/04/13 01:34:30;;;;;;;5.43;1.10;;;;;;;12.38;100.00;102646.31;5531907;25;20064;-75
2024/04/13 01:36:55;;;;;;;3.83;1.40;;;;;;;12.35;100.00;102652.69;5565454;25;20009;-75
2024/04/13 01:39:20;;;;;;;3.42;1.52;;;;;;;12.30;100.00;102662.84;5565169;25;20001;-76
2024/04/13 01:41:50;;;;;;;4.43;1.42;;;;;;;12.29;100.00;102652.28;5565194;25;20000;-75
2024/04/13 01:44:16;;;;;;;5.80;1.50;;;;;;;12.29;100.00;102650.47;5565093;25;20004;-75
2024/04/13 01:46:41;;;;;;;4.57;1.67;;;;;;;12.34;100.00;102650.13;5565517;25;20010;-75
2024/04/13 01:49:07;;;;;;;4.75;1.98;;;;;;;12.32;100.00;102649.41;5564852;25;19996;-75
2024/04/13 01:51:33;;;;;;;2.03;1.20;;;;;;;12.30;100.00;102657.50;5564213;25;19992;-75
2024/04/13 01:53:59;;;;;;;6.53;1.70;;;;;;;12.30;100.00;102660.19;5564626;25;20003;-74
2024/04/13 01:56:24;;;;;;;7.13;1.42;;;;;;;12.31;100.00;102663.69;5564724;25;20004;-75
2024/04/13 01:58:50;;;;;;;4.10;1.52;;;;;;;12.31;100.00;102661.03;5565246;25;19997;-74
2024/04/13 02:01:15;;;;;;;3.45;1.45;;;;;;;12.28;100.00;102659.41;5564748;25;20006;-75
2024/04/13 02:03:41;;;;;;;8.35;2.65;;;;;;;12.19;100.00;102654.72;5564953;25;20019;-75
2024/04/13 02:06:08;;;;;;;5.60;1.55;;;;;;;12.15;100.00;102670.09;5564354;25;20306;-75
2024/04/13 02:08:35;;;;;;;5.25;1.63;;;;;;;12.09;100.00;102661.63;5565468;25;20033;-75
2024/04/13 02:11:01;;;;;;;2.80;1.20;;;;;;;12.03;100.00;102667.41;5564671;25;19996;-75
2024/04/13 02:13:28;;;;;;;6.18;1.77;;;;;;;12.00;100.00;102663.13;5564847;25;20007;-74
2024/04/13 02:15:54;;;;;;;2.42;1.30;;;;;;;12.00;100.00;102663.13;5564426;25;20008;-76
2024/04/13 02:18:19;;;;;;;7.43;1.98;;;;;;;12.03;100.00;102668.25;5564230;25;20000;-76
2024/04/13 02:20:45;;;;;;;5.63;1.77;;;;;;;11.97;100.00;102680.22;5564600;25;20007;-76
2024/04/13 02:23:10;;;;;;;5.60;1.58;;;;;;;11.95;100.00;102678.59;5500714;25;19993;-75
2024/04/13 02:25:36;;;;;;;2.38;1.63;;;;;;;11.90;100.00;102684.22;5564602;25;20008;-75
2024/04/13 02:28:03;;;;;;;3.72;1.50;;;;;;;11.89;100.00;102677.16;5564439;25;20444;-75
2024/04/13 02:30:30;;;;;;;6.18;1.30;;;;;;;11.85;100.00;102675.63;5531930;25;20059;-74
2024/04/13 02:32:55;;;;;;;3.90;1.65;;;;;;;11.78;100.00;102675.22;5564538;25;19993;-75
2024/04/13 02:35:20;;;;;;;4.70;1.45;;;;;;;11.75;100.00;102677.25;5564114;25;20007;-76
2024/04/13 02:37:46;;;;;;;3.42;1.35;;;;;;;11.71;100.00;102675.72;5564537;25;20433;-75
2024/04/13 02:40:11;;;;;;;6.03;1.50;;;;;;;11.64;100.00;102667.25;5563812;25;20310;-75
2024/04/13 02:42:36;;;;;;;6.90;2.08;;;;;;;11.58;100.00;102667.66;5564004;25;19992;-75
2024/04/13 02:45:03;;;;;;;2.85;1.35;;;;;;;11.51;100.00;102656.56;5563959;25;19996;-74
2024/04/13 02:47:28;;;;;;;7.38;2.00;;;;;;;11.43;100.00;102664.19;5563797;25;19989;-77
2024/04/13 02:49:54;;;;;;;6.80;1.50;;;;;;;11.32;100.00;102658.72;5531310;25;20007;-76
2024/04/13 02:52:20;;;;;;;4.85;1.70;;;;;;;11.22;100.00;102661.97;5563895;25;19997;-76
2024/04/13 02:54:45;;;;;;;5.53;1.85;;;;;;;11.11;100.00;102657.34;5563778;25;19993;-77
2024/04/13 02:57:12;;;;;;;6.15;1.48;;;;;;;11.02;100.00;102660.59;5564148;25;20007;-76
2024/04/13 02:59:38;;;;;;;4.75;1.52;;;;;;;10.90;100.00;102656.91;5564252;25;20064;-76
2024/04/13 03:02:04;;;;;;;3.65;1.77;;;;;;;10.82;100.00;102661.81;5563700;25;20009;-77
2024/04/13 03:04:31;;;;;;;5.45;1.55;;;;;;;10.73;100.00;102663.28;5564080;25;20029;-77
2024/04/13 03:06:59;;;;;;;7.57;1.80;;;;;;;10.66;100.00;102658.41;5531515;25;19997;-75
2024/04/13 03:09:25;;;;;;;8.45;2.20;;;;;;;10.62;100.00;102663.09;5563892;25;20509;-76
2024/04/13 03:11:50;;;;;;;7.50;2.20;;;;;;;10.58;100.00;102666.88;5563692;25;20034;-76
2024/04/13 03:14:16;;;;;;;7.18;1.70;;;;;;;10.52;100.00;102660.13;5564585;25;19993;-77
2024/04/13 03:16:41;;;;;;;6.72;1.90;;;;;;;10.50;100.00;102664.69;5531189;25;20005;-76
2024/04/13 03:19:07;;;;;;;6.13;1.90;;;;;;;10.49;100.00;102659.47;5563627;25;19992;-77
2024/04/13 03:21:35;;;;;;;6.75;1.70;;;;;;;10.47;100.00;102667.53;5563469;25;20004;-76
2024/04/13 03:24:01;;;;;;;3.33;1.75;;;;;;;10.47;100.00;102656.06;5562834;25;20068;-77
2024/04/13 03:26:26;;;;;;;4.93;1.83;;;;;;;10.45;100.00;102655.28;5563169;25;19993;-76
2024/04/13 03:28:52;;;;;;;5.38;2.53;;;;;;;10.41;100.00;102649.28;5563903;25;19993;-76
2024/04/13 03:31:17;;;;;;;4.20;1.90;;;;;;;10.34;100.00;102646.13;5563388;25;20006;-77
2024/04/13 03:33:43;;;;;;;6.32;1.92;;;;;;;10.29;100.00;102650.88;5564437;25;19992;-77
2024/04/13 03:36:08;;;;;;;7.85;2.00;;;;;;;10.29;100.00;102645.53;5563115;25;20007;-78
2024/04/13 03:38:33;;;;;;;6.95;1.95;;;;;;;10.29;100.00;102658.84;5563435;25;19992;-76
2024/04/13 03:41:00;;;;;;;5.78;2.30;;;;;;;10.29;100.00;102647.34;5563280;25;20001;-76
2024/04/13 03:43:26;;;;;;;4.45;1.95;;;;;;;10.30;100.00;102646.38;5530842;25;20313;-76
2024/04/13 03:45:54;;;;;;;6.97;2.08;;;;;;;10.31;100.00;102646.28;5563027;25;20008;-76
2024/04/13 03:48:20;;;;;;;6.68;2.42;;;;;;;10.32;100.00;102636.53;5563180;25;20011;-76
2024/04/13 03:50:46;;;;;;;6.78;2.00;;;;;;;10.44;100.00;102634.94;5563199;25;20004;-76
2024/04/13 03:53:13;;;;;;;9.88;2.78;;;;;;;10.47;100.00;102643.59;5530286;25;19993;-77
2024/04/13 03:55:38;;;;;;;3.30;1.88;;;;;;;10.46;100.00;102641.88;5530131;25;20004;-77
2024/04/13 03:58:03;;;;;;;6.88;2.00;;;;;;;10.41;100.00;102636.00;5563194;25;20004;-76
2024/04/13 04:00:28;;;;;;;4.68;1.60;;;;;;;10.37;100.00;102629.13;5563103;25;20008;-77
2024/04/13 04:02:56;;;;;;;6.10;2.08;;;;;;;10.33;100.00;102625.81;5562675;25;19989;-76
2024/04/13 04:05:22;;;;;;;5.78;1.85;;;;;;;10.29;100.00;102632.25;5562861;25;19993;-76
2024/04/13 04:07:47;;;;;;;6.30;2.10;;;;;;;10.29;100.00;102634.91;5562511;25;19993;-77
2024/04/13 04:10:13;;;;;;;5.43;2.30;;;;;;;10.26;100.00;102635.09;5529600;25;20313;-77
2024/04/13 04:12:39;;;;;;;6.45;2.03;;;;;;;10.22;100.00;102631.75;5562572;25;19992;-76
2024/04/13 04:15:05;;;;;;;5.00;2.25;;;;;;;10.21;100.00;102634.50;5532085;25;20290;-76
2024/04/13 04:17:31;;;;;;;3.72;1.98;;;;;;;10.21;100.00;102637.16;5533397;25;20061;-76
2024/04/13 04:19:56;;;;;;;10.20;3.30;;;;;;;10.17;100.00;102633.84;5565842;25;20446;-76
2024/04/13 04:22:21;;;;;;;3.85;2.10;;;;;;;10.13;100.00;102628.78;5566024;25;20333;-77
2024/04/13 04:24:46;;;;;;;7.03;2.17;;;;;;;10.09;100.00;102629.91;5565717;25;19997;-77
2024/04/13 04:27:12;;;;;;;7.22;2.10;;;;;;;10.02;100.00;102629.44;5566207;25;19993;-76
2024/04/13 04:29:37;;;;;;;3.53;2.00;;;;;;;10.02;100.00;102629.44;5565842;25;19989;-76
2024/04/13 04:32:03;;;;;;;6.45;2.20;;;;;;;10.01;100.00;102628.56;5533045;25;20001;-77
2024/04/13 04:34:30;;;;;;;4.50;2.10;;;;;;;10.01;100.00;102638.38;5502745;25;19997;-77
2024/04/13 04:36:55;;;;;;;5.07;2.00;;;;;;;10.00;100.00;102633.97;5565761;25;20004;-76
2024/04/13 04:39:20;;;;;;;5.93;2.30;;;;;;;9.97;100.00;102623.53;5565831;25;20381;-76
2024/04/13 04:41:46;;;;;;;4.53;1.92;;;;;;;9.96;100.00;102630.66;5566052;25;20001;-77
2024/04/13 04:44:11;;;;;;;6.22;2.40;;;;;;;9.96;100.00;102635.13;5565867;25;20003;-77
2024/04/13 04:46:37;;;;;;;2.83;1.85;;;;;;;9.99;100.00;102629.63;5565790;25;20042;-77
2024/04/13 04:49:05;;;;;;;5.35;2.15;;;;;;;9.97;100.00;102626.19;5565606;25;20007;-76
2024/04/13 04:51:31;;;;;;;5.47;2.20;;;;;;;9.97;100.00;102619.09;5565909;25;20003;-77
2024/04/13 04:53:58;;;;;;;4.22;2.15;;;;;;;9.98;100.00;102618.13;5565828;25;20005;-77
2024/04/13 04:56:26;;;;;;;6.25;2.22;;;;;;;10.04;100.00;102624.88;5565303;25;20336;-77
2024/04/13 04:58:51;;;;;;;7.88;2.25;;;;;;;10.10;100.00;102616.53;5565925;25;20025;-76
2024/04/13 05:01:16;;;;;;;7.20;2.80;;;;;;;10.11;100.00;102612.94;5566490;25;20065;-77
2024/04/13 05:03:42;;;;;;;8.23;2.70;;;;;;;10.12;100.00;102619.97;5565771;25;20004;-76
2024/04/13 05:06:08;;;;;;;5.60;2.22;;;;;;;10.15;100.00;102616.25;5565532;25;20068;-76
2024/04/13 05:08:33;;;;;;;6.57;2.50;;;;;;;10.16;100.00;102604.66;5532496;25;20374;-77
2024/04/13 05:10:58;;;;;;;11.45;2.65;;;;;;;10.21;100.00;102607.88;5565593;25;19993;-77
2024/04/13 05:13:24;;;;;;;6.22;2.70;;;;;;;10.23;100.00;102606.84;5565341;25;20417;-76
2024/04/13 05:15:49;;;;;;;4.82;2.03;;;;;;;10.26;100.00;102604.97;5565310;25;19997;-77
2024/04/13 05:18:14;;;;;;;3.45;2.20;;;;;;;10.29;100.00;102604.78;5532413;25;20015;-77
2024/04/13 05:20:40;;;;;;;8.18;2.42;;;;;;;10.33;100.00;102611.59;5565749;25;20064;-76
2024/04/13 05:23:05;;;;;;;10.90;2.85;;;;;;;10.40;100.00;102615.66;5565667;25;19993;-76
2024/04/13 05:25:31;;;;;;;3.63;2.28;;;;;;;10.48;100.00;102609.84;5563680;25;20012;-77
2024/04/13 05:27:56;;;;;;;6.70;2.40;;;;;;;10.54;100.00;102607.66;5565786;25;19996;-77
2024/04/13 05:30:22;;;;;;;9.68;2.33;;;;;;;10.63;100.00;102608.03;5565410;25;20360;-77
2024/04/13 05:32:47;;;;;;;4.63;2.03;;;;;;;10.72;100.00;102607.47;5564972;25;20007;-77
2024/04/13 05:35:15;;;;;;;5.32;2.15;;;;;;;10.79;100.00;102607.94;5565026;25;20064;-77
2024/04/13 05:37:40;;;;;;;4.60;1.88;;;;;;;10.87;100.00;102611.81;5565700;25;19993;-76
2024/04/13 05:40:06;;;;;;;3.38;2.10;;;;;;;10.94;100.00;102618.47;5531998;25;20010;-76
2024/04/13 05:42:31;;;;;;;5.18;2.25;;;;;;;11.03;100.00;102622.34;5564978;25;20437;-76
2024/04/13 05:44:58;;;;;;;6.43;2.50;;;;;;;11.09;100.00;102619.28;5565208;25;20417;-75
2024/04/13 05:47:23;;;;;;;6.53;2.28;;;;;;;11.17;100.00;102616.13;5532994;25;19993;-75
2024/04/13 05:49:50;;;;;;;6.70;2.85;;;;;;;11.27;100.00;102621.69;5531659;25;20003;-76
2024/04/13 05:52:15;;;;;;;8.90;2.22;;;;;;;11.38;100.00;102621.84;5564703;25;19993;-75
2024/04/13 05:54:41;;;;;;;6.97;2.50;;;;;;;11.49;100.00;102620.31;5564981;25;20004;-76
2024/04/13 05:57:07;;;;;;;8.02;2.80;;;;;;;11.58;100.00;102619.69;5564940;25;20060;-76
2024/04/13 05:59:32;;;;;;;5.93;2.15;;;;;;;11.67;100.00;102616.41;5564288;25;20005;-76
2024/04/13 06:01:57;;;;;;;6.32;2.80;;;;;;;11.74;100.00;102607.03;5564748;25;19994;-75
2024/04/13 06:04:23;;;;;;;6.05;2.38;;;;;;;11.85;100.00;102610.78;5564975;25;20433;-75
2024/04/13 06:06:50;;;;;;;7.03;2.30;;;;;;;11.94;100.00;102612.84;5564653;25;20000;-76
2024/04/13 06:09:16;;;;;;;5.80;2.15;;;;;;;12.06;100.00;102616.50;5564784;25;19996;-76
2024/04/13 06:11:41;;;;;;;4.93;2.45;;;;;;;12.13;100.00;102615.97;5564931;25;20431;-76
2024/04/13 06:14:06;;;;;;;5.05;2.72;;;;;;;12.22;100.00;102616.31;5564359;25;19993;-75
2024/04/13 06:16:33;;;;;;;4.20;2.53;;;;;;;12.29;100.00;102609.59;5564640;25;20000;-76
2024/04/13 06:18:58;;;;;;;3.97;2.25;;;;;;;12.36;100.00;102616.19;5501021;25;20001;-75
2024/04/13 06:21:24;;;;;;;4.82;2.40;;;;;;;12.42;100.00;102602.41;5531809;25;20003;-75
2024/04/13 06:23:50;;;;;;;6.18;2.50;;;;;;;12.50;100.00;102600.03;5563916;25;20402;-76
2024/04/13 06:26:15;;;;;;;4.60;2.17;;;;;;;12.61;100.00;102601.09;5563969;25;19997;-75
2024/04/13 06:28:40;;;;;;;5.47;2.00;;;;;;;12.69;100.00;102599.59;5531391;25;20437;-76
2024/04/13 06:31:06;;;;;;;7.22;2.35;;;;;;;12.79;100.00;102606.94;5531390;25;19993;-75
2024/04/13 06:33:33;;;;;;;3.72;2.00;;;;;;;12.92;100.00;102599.75;5531746;25;20289;-76
2024/04/13 06:35:58;;;;;;;8.27;2.47;;;;;;;13.05;100.00;102605.91;5564575;25;20004;-75
2024/04/13 06:38:24;;;;;;;4.15;2.15;;;;;;;13.15;100.00;102606.09;5563945;25;20444;-75
2024/04/13 06:40:52;;;;;;;3.17;1.80;;;;;;;13.26;100.00;102601.78;5564425;25;19992;-76
2024/04/13 06:43:20;;;;;;;5.82;2.50;;;;;;;13.34;100.00;102605.59;5564440;25;20003;-76
2024/04/13 06:45:46;;;;;;;4.75;2.40;;;;;;;13.48;100.00;102611.72;5564324;25;19992;-76
2024/04/13 06:48:12;;;;;;;6.53;2.60;;;;;;;13.60;100.00;102601.94;5531314;25;20009;-75
2024/04/13 06:50:37;;;;;;;6.15;2.20;;;;;;;13.73;100.00;102600.03;5564080;25;20008;-77
2024/04/13 06:53:03;;;;;;;5.25;2.33;;;;;;;13.84;100.00;102600.09;5563914;25;19993;-76
2024/04/13 06:55:28;;;;;;;6.15;3.47;;;;;;;13.94;100.00;102594.84;5564223;25;20064;-76
2024/04/13 06:57:54;;;;;;;4.75;2.17;;;;;;;14.08;100.00;102588.47;5563842;25;20091;-75
2024/04/13 07:00:19;;;;;;;4.53;2.20;;;;;;;14.20;100.00;102589.31;5564151;25;20010;-77
2024/04/13 07:02:45;;;;;;;4.63;2.17;;;;;;;14.34;100.00;102589.06;5564074;25;20136;-77
2024/04/13 07:05:11;;;;;;;8.63;2.28;;;;;;;14.42;100.00;102596.50;5564407;25;20000;-76
2024/04/13 07:07:36;;;;;;;3.90;2.03;;;;;;;14.49;100.00;102586.16;5564235;25;20312;-75
2024/04/13 07:10:02;;;;;;;4.72;2.15;;;;;;;14.57;100.00;102594.41;5564058;25;20366;-77
2024/04/13 07:12:28;;;;;;;9.70;2.30;;;;;;;14.59;100.00;102589.81;5564325;25;19993;-77
2024/04/13 07:14:53;;;;;;;7.38;2.53;;;;;;;14.59;100.00;102595.16;5563971;25;20184;-77
2024/04/13 07:17:19;;;;;;;4.15;2.20;;;;;;;14.58;100.00;102583.59;5564133;25;20003;-77
2024/04/13 07:19:44;;;;;;;3.78;2.22;;;;;;;14.62;100.00;102584.25;5563542;25;19993;-78
2024/04/13 07:22:09;;;;;;;6.00;2.25;;;;;;;14.69;100.00;102579.22;5563837;25;19993;-76
2024/04/13 07:24:35;;;;;;;4.78;2.38;;;;;;;14.72;100.00;102576.28;5564214;25;20000;-77
2024/04/13 07:27:00;;;;;;;4.05;2.20;;;;;;;14.87;100.00;102572.38;5563291;25;19996;-77
2024/04/13 07:29:27;;;;;;;11.95;2.28;;;;;;;15.06;100.00;102571.75;5564130;25;20485;-75
2024/04/13 07:31:52;;;;;;;6.10;2.70;;;;;;;15.26;100.00;102564.72;5531096;25;20003;-75
2024/04/13 07:34:18;;;;;;;4.38;2.40;;;;;;;15.41;100.00;102567.09;5564438;25;19993;-75
2024/04/13 07:36:45;;;;;;;5.10;2.40;;;;;;;15.49;100.00;102554.72;5530659;25;20004;-75
2024/04/13 07:39:12;;;;;;;4.32;2.40;;;;;;;15.57;100.00;102562.13;5563289;25;19997;-75
2024/04/13 07:41:38;;;;;;;4.93;2.28;;;;;;;15.68;100.00;102556.69;5563782;25;20005;-77
2024/04/13 07:44:03;;;;;;;6.88;2.58;;;;;;;15.77;100.00;102562.28;5563034;25;20344;-76
2024/04/13 07:46:29;;;;;;;5.00;2.13;;;;;;;15.89;100.00;102573.81;5563501;25;20331;-73
2024/04/13 07:48:54;;;;;;;4.75;2.50;;;;;;;15.98;100.00;102567.66;5561817;25;20022;-75
2024/04/13 07:51:20;;;;;;;4.15;2.47;;;;;;;16.04;100.00;102572.50;5563505;25;20305;-74
2024/04/13 07:53:46;;;;;;;6.07;2.30;;;;;;;16.09;100.00;102564.88;5563143;25;19993;-76
2024/04/13 07:56:11;;;;;;;4.55;2.65;;;;;;;16.20;100.00;102553.22;5563199;25;20003;-76
2024/04/13 07:58:36;;;;;;;4.57;2.33;;;;;;;16.39;100.00;102560.47;5563289;25;19993;-77
2024/04/13 08:01:03;;;;;;;4.50;2.45;;;;;;;16.55;100.00;102558.13;5529636;25;20008;-80
2024/04/13 08:03:29;;;;;;;4.90;2.88;;;;;;;16.69;100.00;102547.97;5563157;25;20007;-77
2024/04/13 08:05:54;;;;;;;7.45;2.50;;;;;;;17.07;100.00;102554.47;5562574;25;19997;-77
2024/04/13 08:08:19;;;;;;;5.65;3.28;;;;;;;17.31;100.00;102553.19;5562868;25;20008;-76
2024/04/13 08:10:45;;;;;;;5.75;2.55;;;;;;;17.52;100.00;102553.88;5529867;25;19993;-80
2024/04/13 08:13:10;;;;;;;4.03;2.53;;;;;;;17.69;100.00;102549.63;5562985;25;19997;-79
2024/04/13 08:15:39;;;;;;;4.88;2.85;;;;;;;17.62;100.00;102552.03;5563274;25;20003;-78
2024/04/13 08:18:05;;;;;;;4.60;2.75;;;;;;;17.70;100.00;102547.78;5562103;25;19992;-78
2024/04/13 08:20:30;;;;;;;4.63;2.85;;;;;;;17.43;100.00;102549.34;5562795;25;20008;-78
2024/04/13 08:22:56;;;;;;;4.65;2.60;;;;;;;17.32;100.00;102552.22;5562341;25;19997;-77
2024/04/13 08:25:21;;;;;;;5.38;2.70;;;;;;;17.17;100.00;102541.88;5562339;25;20033;-76
2024/04/13 08:27:46;;;;;;;3.55;2.70;;;;;;;17.19;100.00;102526.44;5562415;25;19993;-75
2024/04/13 08:30:12;;;;;;;4.28;2.58;;;;;;;17.33;100.00;102527.00;5562847;25;20007;-77
2024/04/13 08:32:38;;;;;;;4.93;2.80;;;;;;;17.43;100.00;102535.91;5562603;25;20395;-74
2024/04/13 08:35:07;;;;;;;4.13;2.55;;;;;;;17.58;100.00;102523.69;5562409;25;19992;-75
2024/04/13 08:37:32;;;;;;;2.95;2.63;;;;;;;17.80;100.00;102527.91;5562264;25;19992;-74
2024/04/13 08:39:58;;;;;;;7.70;2.60;;;;;;;17.93;100.00;102527.63;5562038;25;20266;-74
2024/04/13 08:42:33;;;;;;;4.75;2.65;;;;;;;18.03;100.00;102518.66;5529342;25;20421;-75
2024/04/13 08:44:59;;;;;;;5.68;2.80;;;;;;;18.39;100.00;102510.69;5562499;25;19992;-75
2024/04/13 08:47:27;;;;;;;3.85;2.63;;;;;;;18.51;100.00;102506.78;5529087;25;19997;-74
2024/04/13 08:49:55;;;;;;;5.50;2.65;;;;;;;18.58;100.00;102509.75;5561868;25;20000;-76
2024/04/13 08:52:22;;;;;;;4.75;2.88;;;;;;;18.87;100.00;102506.88;5562128;25;20040;-75
2024/04/13 08:54:48;;;;;;;5.70;3.20;;;;;;;19.08;100.00;102494.91;5561676;25;19997;-73
2024/04/13 08:57:18;;;;;;;3.50;2.97;;;;;;;19.38;100.00;102494.50;5561354;25;20038;-75
2024/04/13 08:59:46;;;;;;;8.13;3.05;;;;;;;19.58;100.00;102498.84;5562660;25;20001;-74
2024/04/13 09:02:14;;;;;;;7.18;2.85;;;;;;;19.78;100.00;102483.31;5565585;25;20003;-75
2024/04/13 09:04:39;;;;;;;5.95;2.95;;;;;;;19.98;100.00;102484.75;5565785;25;20033;-72
2024/04/13 09:07:04;;;;;;;6.78;3.15;;;;;;;20.31;100.00;102467.84;5565883;25;19993;-74
2024/04/13 09:09:32;;;;;;;5.80;2.75;;;;;;;20.89;100.00;102471.53;5565328;25;19993;-73
2024/04/13 09:11:58;;;;;;;5.82;2.90;;;;;;;21.35;100.00;102468.28;5565510;25;20000;-74
2024/04/13 09:14:25;;;;;;;4.43;2.65;;;;;;;21.41;100.00;102463.03;5565481;25;20007;-73
2024/04/13 09:16:51;;;;;;;3.22;2.47;;;;;;;21.69;100.00;102470.81;5532542;25;19993;-73
2024/04/13 09:19:16;;;;;;;4.75;2.90;;;;;;;21.94;100.00;102468.84;5565714;25;20004;-73
2024/04/13 09:21:42;;;;;;;4.55;2.60;;;;;;;22.41;100.00;102466.28;5565084;25;20421;-73
2024/04/13 09:24:09;;;;;;;7.65;2.80;;;;;;;22.59;100.00;102456.00;5565280;25;20005;-73
2024/04/13 09:26:47;;;;;;;6.38;2.88;;;;;;;22.32;100.00;102454.66;5565702;25;20041;-73
2024/04/13 09:29:24;;;;;;;5.22;2.70;;;;;;;22.29;100.00;102455.00;5565761;25;20033;-74
2024/04/13 09:31:49;;;;;;;5.32;2.92;;;;;;;22.51;100.00;102456.06;5566359;25;19993;-73
2024/04/13 09:34:18;;;;;;;5.80;2.85;;;;;;;22.80;100.00;102455.34;5565350;25;19993;-73
2024/04/13 09:36:43;;;;;;;6.35;2.70;;;;;;;22.71;100.00;102453.72;5566207;25;20007;-73
2024/04/13 09:39:22;;;;;;;9.35;2.60;;;;;;;23.11;100.00;102459.88;5565211;25;19993;-74
2024/04/13 09:41:47;;;;;;;6.97;2.67;;;;;;;23.41;100.00;102446.38;5532746;25;19996;-73
2024/04/13 09:44:26;;;;;;;4.82;2.90;;;;;;;23.28;100.00;102443.44;5531765;25;20004;-75
2024/04/13 09:46:52;;;;;;;3.78;2.70;;;;;;;23.65;100.00;102438.97;5532488;25;20304;-74
2024/04/13 09:49:17;;;;;;;5.57;2.80;;;;;;;23.62;100.00;102444.75;5565058;25;20025;-74
2024/04/13 09:51:46;;;;;;;6.28;2.83;;;;;;;23.49;100.00;102438.09;5565197;25;20004;-74
2024/04/13 09:54:12;;;;;;;4.15;2.67;;;;;;;23.80;100.00;102434.38;5564948;25;20306;-75
2024/04/13 09:56:38;;;;;;;6.07;2.65;;;;;;;23.84;100.00;102429.38;5564432;25;20068;-75
2024/04/13 09:59:04;;;;;;;3.97;2.60;;;;;;;24.12;100.00;102426.84;5564695;25;20004;-72
2024/04/13 10:01:29;;;;;;;3.85;2.70;;;;;;;24.28;100.00;102426.59;5531887;25;20309;-72
2024/04/13 10:03:54;;;;;;;5.65;2.80;;;;;;;24.17;100.00;102424.41;5531945;25;19996;-72
2024/04/13 10:06:21;;;;;;;4.20;2.53;;;;;;;24.23;100.00;102430.94;5564137;25;20096;-72
2024/04/13 10:08:47;;;;;;;3.60;2.35;;;;;;;24.38;100.00;102428.16;5564909;25;20036;-72
2024/04/13 10:11:15;;;;;;;6.70;3.20;;;;;;;24.39;100.00;102427.13;5564200;25;19997;-72
2024/04/13 10:13:46;;;;;;;6.15;3.15;;;;;;;23.91;100.00;102417.59;5564677;25;20064;-74
2024/04/13 10:16:14;;;;;;;7.07;2.90;;;;;;;24.09;100.00;102419.06;5564934;25;20017;-74
2024/04/13 10:18:39;;;;;;;6.95;3.70;;;;;;;24.33;100.00;102412.44;5564783;25;19992;-75
2024/04/13 10:21:07;;;;;;;8.63;3.55;;;;;;;24.88;100.00;102414.66;5564854;25;20444;-75
2024/04/13 10:23:39;;;;;;;7.65;3.72;;;;;;;25.36;100.00;102414.81;5564361;25;20440;-75
2024/04/13 10:26:05;;;;;;;9.00;3.60;;;;;;;25.59;100.00;102416.41;5564134;25;19993;-75
2024/04/13 10:28:31;;;;;;;11.40;3.72;;;;;;;25.53;100.00;102418.09;5564717;25;20024;-75
2024/04/13 10:30:56;;;;;;;7.72;4.25;;;;;;;25.66;100.00;102417.31;5531582;25;20393;-75
2024/04/13 10:33:27;;;;;;;8.68;4.28;;;;;;;25.21;100.00;102406.75;5564387;25;20064;-76
2024/04/13 10:36:00;;;;;;;8.80;4.55;;;;;;;25.22;100.00;102415.78;5564093;25;20006;-74
2024/04/13 10:38:28;;;;;;;8.70;5.15;;;;;;;25.13;100.00;102409.63;5564550;25;20121;-78
2024/04/13 10:40:54;;;;;;;9.93;5.35;;;;;;;25.23;100.00;102395.63;5564448;25;19992;-74
2024/04/13 10:43:21;;;;;;;12.80;5.40;;;;;;;25.29;100.00;102390.25;5563972;25;20333;-74
2024/04/13 10:45:54;;;;;;;9.93;5.53;;;;;;;25.51;100.00;102379.28;5563850;25;19993;-73
2024/04/13 10:48:21;;;;;;;10.70;6.13;;;;;;;25.45;100.00;102380.09;5563834;25;19997;-74
2024/04/13 10:50:51;;;;;;;8.32;5.82;;;;;;;25.95;100.00;102382.63;5531586;25;19988;-74
2024/04/13 10:53:17;;;;;;;12.43;5.53;;;;;;;26.27;100.00;102377.50;5564439;25;19989;-74
2024/04/13 10:55:43;;;;;;;9.82;5.88;;;;;;;25.82;100.00;102375.25;5531138;25;20431;-72
2024/04/13 10:58:11;;;;;;;10.68;5.90;;;;;;;26.27;100.00;102372.03;5563899;25;20003;-72
2024/04/13 11:00:36;;;;;;;9.73;6.18;;;;;;;25.51;100.00;102371.09;5564785;25;20049;-73
2024/04/13 11:03:03;;;;;;;12.48;5.93;;;;;;;25.00;100.00;102369.53;5564833;25;20004;-72
2024/04/13 11:05:29;;;;;;;12.23;5.60;;;;;;;24.58;100.00;102366.66;5563566;25;20007;-73
2024/04/13 11:07:55;;;;;;;8.90;5.72;;;;;;;24.61;100.00;102366.28;5563934;25;19993;-72
2024/04/13 11:10:20;;;;;;;13.30;6.47;;;;;;;24.72;100.00;102358.63;5563922;25;20001;-72
2024/04/13 11:12:48;;;;;;;12.25;6.10;;;;;;;24.84;100.00;102353.47;5565045;25;20008;-72